sensor_id;sensor_type;location;lat;lon;timestamp;P1;durP1;ratioP1;P2;durP2;ratioP2
17177;SDS011;8704;52.006;4.374;2022-12-18T00:01:51;131.65;;;62.33;;
17177;SDS011;8704;52.006;4.374;2022-12-18T00:04:21;132.05;;;57.95;;
17177;SDS011;8704;52.006;4.374;2022-12-18T00:06:50;179.65;;;74.95;;
17177;SDS011;8704;52.006;4.374;2022-12-18T00:09:19;128.77;;;60.20;;
17177;SDS011;8704;52.006;4.374;2022-12-18T00:11:50;130.90;;;60.05;;
17177;SDS011;8704;52.006;4.374;2022-12-18T00:14:18;129.55;;;62.97;;
17177;SDS011;8704;52.006;4.374;2022-12-18T00:16:46;126.65;;;62.20;;
17177;SDS011;8704;52.006;4.374;2022-12-18T00:19:16;135.75;;;63.67;;
17177;SDS011;8704;52.006;4.374;2022-12-18T00:21:44;135.40;;;63.75;;
17177;SDS011;8704;52.006;4.374;2022-12-18T00:24:12;129.00;;;62.10;;
17177;SDS011;8704;52.006;4.374;2022-12-18T00:26:40;130.77;;;62.75;;
17177;SDS011;8704;52.006;4.374;2022-12-18T00:29:10;134.13;;;62.60;;
17177;SDS011;8704;52.006;4.374;2022-12-18T00:31:40;121.95;;;60.78;;
17177;SDS011;8704;52.006;4.374;2022-12-18T00:34:10;128.60;;;62.13;;
17177;SDS011;8704;52.006;4.374;2022-12-18T00:36:40;120.82;;;59.92;;
17177;SDS011;8704;52.006;4.374;2022-12-18T00:39:09;120.20;;;57.05;;
17177;SDS011;8704;52.006;4.374;2022-12-18T00:41:38;113.78;;;58.45;;
17177;SDS011;8704;52.006;4.374;2022-12-18T00:44:23;97.20;;;52.33;;
17177;SDS011;8704;52.006;4.374;2022-12-18T00:46:51;113.10;;;54.10;;
17177;SDS011;8704;52.006;4.374;2022-12-18T00:49:19;100.38;;;52.80;;
17177;SDS011;8704;52.006;4.374;2022-12-18T00:51:49;101.57;;;51.58;;
17177;SDS011;8704;52.006;4.374;2022-12-18T00:54:17;91.53;;;50.42;;
17177;SDS011;8704;52.006;4.374;2022-12-18T00:56:45;86.88;;;45.95;;
17177;SDS011;8704;52.006;4.374;2022-12-18T00:59:15;91.65;;;47.97;;
17177;SDS011;8704;52.006;4.374;2022-12-18T01:01:43;89.45;;;47.95;;
17177;SDS011;8704;52.006;4.374;2022-12-18T01:04:12;91.10;;;45.47;;
17177;SDS011;8704;52.006;4.374;2022-12-18T01:06:41;84.95;;;46.13;;
17177;SDS011;8704;52.006;4.374;2022-12-18T01:09:11;89.50;;;45.60;;
17177;SDS011;8704;52.006;4.374;2022-12-18T01:11:39;82.82;;;44.88;;
17177;SDS011;8704;52.006;4.374;2022-12-18T01:14:07;86.75;;;43.53;;
17177;SDS011;8704;52.006;4.374;2022-12-18T01:16:36;84.95;;;43.97;;
17177;SDS011;8704;52.006;4.374;2022-12-18T01:19:04;91.88;;;47.90;;
17177;SDS011;8704;52.006;4.374;2022-12-18T01:21:32;87.68;;;44.60;;
17177;SDS011;8704;52.006;4.374;2022-12-18T01:24:00;89.60;;;45.03;;
17177;SDS011;8704;52.006;4.374;2022-12-18T01:26:29;94.45;;;47.75;;
17177;SDS011;8704;52.006;4.374;2022-12-18T01:28:57;101.03;;;50.45;;
17177;SDS011;8704;52.006;4.374;2022-12-18T01:31:26;97.22;;;49.25;;
17177;SDS011;8704;52.006;4.374;2022-12-18T01:33:55;101.82;;;49.13;;
17177;SDS011;8704;52.006;4.374;2022-12-18T01:36:24;99.57;;;48.75;;
17177;SDS011;8704;52.006;4.374;2022-12-18T01:38:54;104.30;;;49.20;;
17177;SDS011;8704;52.006;4.374;2022-12-18T01:41:24;100.22;;;46.50;;
17177;SDS011;8704;52.006;4.374;2022-12-18T01:47:21;119.57;;;50.92;;
17177;SDS011;8704;52.006;4.374;2022-12-18T01:49:53;146.43;;;63.72;;
17177;SDS011;8704;52.006;4.374;2022-12-18T01:52:23;125.03;;;53.53;;
17177;SDS011;8704;52.006;4.374;2022-12-18T01:54:53;115.28;;;56.03;;
17177;SDS011;8704;52.006;4.374;2022-12-18T01:57:23;125.38;;;53.90;;
17177;SDS011;8704;52.006;4.374;2022-12-18T01:59:52;119.68;;;54.90;;
17177;SDS011;8704;52.006;4.374;2022-12-18T02:02:25;119.95;;;53.65;;
17177;SDS011;8704;52.006;4.374;2022-12-18T02:04:54;115.25;;;51.53;;
17177;SDS011;8704;52.006;4.374;2022-12-18T02:07:24;111.90;;;52.42;;
17177;SDS011;8704;52.006;4.374;2022-12-18T02:09:59;112.78;;;53.30;;
17177;SDS011;8704;52.006;4.374;2022-12-18T02:12:33;107.30;;;52.60;;
17177;SDS011;8704;52.006;4.374;2022-12-18T02:15:10;116.85;;;54.25;;
17177;SDS011;8704;52.006;4.374;2022-12-18T02:17:45;114.47;;;50.70;;
17177;SDS011;8704;52.006;4.374;2022-12-18T02:20:18;96.90;;;48.47;;
17177;SDS011;8704;52.006;4.374;2022-12-18T02:22:55;99.28;;;48.95;;
17177;SDS011;8704;52.006;4.374;2022-12-18T02:26:01;105.72;;;48.67;;
17177;SDS011;8704;52.006;4.374;2022-12-18T02:28:35;94.47;;;46.00;;
17177;SDS011;8704;52.006;4.374;2022-12-18T02:31:08;104.30;;;46.28;;
17177;SDS011;8704;52.006;4.374;2022-12-18T02:33:39;93.05;;;45.30;;
17177;SDS011;8704;52.006;4.374;2022-12-18T02:36:09;92.43;;;44.13;;
17177;SDS011;8704;52.006;4.374;2022-12-18T02:38:41;95.50;;;42.85;;
17177;SDS011;8704;52.006;4.374;2022-12-18T02:41:11;92.72;;;42.20;;
17177;SDS011;8704;52.006;4.374;2022-12-18T02:43:40;95.53;;;42.83;;
17177;SDS011;8704;52.006;4.374;2022-12-18T02:46:22;90.55;;;41.75;;
17177;SDS011;8704;52.006;4.374;2022-12-18T02:48:58;89.65;;;41.10;;
17177;SDS011;8704;52.006;4.374;2022-12-18T02:51:41;87.82;;;44.40;;
17177;SDS011;8704;52.006;4.374;2022-12-18T02:54:17;88.43;;;41.03;;
17177;SDS011;8704;52.006;4.374;2022-12-18T02:56:56;83.50;;;39.85;;
17177;SDS011;8704;52.006;4.374;2022-12-18T02:59:30;86.13;;;40.85;;
17177;SDS011;8704;52.006;4.374;2022-12-18T03:02:02;87.25;;;39.05;;
17177;SDS011;8704;52.006;4.374;2022-12-18T03:04:38;84.20;;;40.75;;
17177;SDS011;8704;52.006;4.374;2022-12-18T03:07:11;84.93;;;41.25;;
17177;SDS011;8704;52.006;4.374;2022-12-18T03:09:45;81.85;;;38.72;;
17177;SDS011;8704;52.006;4.374;2022-12-18T03:12:18;83.47;;;40.25;;
17177;SDS011;8704;52.006;4.374;2022-12-18T03:14:53;86.22;;;41.38;;
17177;SDS011;8704;52.006;4.374;2022-12-18T03:17:25;84.22;;;40.00;;
17177;SDS011;8704;52.006;4.374;2022-12-18T03:19:56;84.43;;;40.55;;
17177;SDS011;8704;52.006;4.374;2022-12-18T03:22:30;86.40;;;40.90;;
17177;SDS011;8704;52.006;4.374;2022-12-18T03:25:00;82.55;;;39.97;;
17177;SDS011;8704;52.006;4.374;2022-12-18T03:27:32;89.35;;;41.60;;
17177;SDS011;8704;52.006;4.374;2022-12-18T03:30:03;83.00;;;41.28;;
17177;SDS011;8704;52.006;4.374;2022-12-18T03:32:36;77.55;;;38.42;;
17177;SDS011;8704;52.006;4.374;2022-12-18T03:35:08;84.32;;;41.10;;
17177;SDS011;8704;52.006;4.374;2022-12-18T03:37:38;84.38;;;40.90;;
17177;SDS011;8704;52.006;4.374;2022-12-18T03:40:07;84.40;;;41.67;;
17177;SDS011;8704;52.006;4.374;2022-12-18T03:42:39;93.90;;;43.70;;
17177;SDS011;8704;52.006;4.374;2022-12-18T03:45:13;88.63;;;41.85;;
17177;SDS011;8704;52.006;4.374;2022-12-18T03:47:52;77.32;;;38.83;;
17177;SDS011;8704;52.006;4.374;2022-12-18T03:50:27;90.35;;;41.35;;
17177;SDS011;8704;52.006;4.374;2022-12-18T03:53:05;82.50;;;41.83;;
17177;SDS011;8704;52.006;4.374;2022-12-18T03:55:39;83.45;;;41.42;;
17177;SDS011;8704;52.006;4.374;2022-12-18T03:58:09;85.70;;;42.00;;
17177;SDS011;8704;52.006;4.374;2022-12-18T04:00:39;74.78;;;40.53;;
17177;SDS011;8704;52.006;4.374;2022-12-18T04:03:08;80.70;;;42.35;;
17177;SDS011;8704;52.006;4.374;2022-12-18T04:05:37;93.03;;;40.33;;
17177;SDS011;8704;52.006;4.374;2022-12-18T04:08:06;80.88;;;40.22;;
17177;SDS011;8704;52.006;4.374;2022-12-18T04:10:37;80.45;;;38.92;;
17177;SDS011;8704;52.006;4.374;2022-12-18T04:13:05;78.72;;;40.58;;
17177;SDS011;8704;52.006;4.374;2022-12-18T04:15:34;83.50;;;39.50;;
17177;SDS011;8704;52.006;4.374;2022-12-18T04:18:03;79.28;;;40.47;;
17177;SDS011;8704;52.006;4.374;2022-12-18T04:20:31;81.95;;;39.53;;
17177;SDS011;8704;52.006;4.374;2022-12-18T04:22:59;70.97;;;35.88;;
17177;SDS011;8704;52.006;4.374;2022-12-18T04:25:27;71.30;;;35.78;;
17177;SDS011;8704;52.006;4.374;2022-12-18T04:27:55;79.13;;;38.15;;
17177;SDS011;8704;52.006;4.374;2022-12-18T04:30:23;75.55;;;36.90;;
17177;SDS011;8704;52.006;4.374;2022-12-18T04:32:52;68.95;;;35.92;;
17177;SDS011;8704;52.006;4.374;2022-12-18T04:35:20;69.65;;;36.15;;
17177;SDS011;8704;52.006;4.374;2022-12-18T04:37:48;79.68;;;38.28;;
17177;SDS011;8704;52.006;4.374;2022-12-18T04:40:16;84.75;;;40.42;;
17177;SDS011;8704;52.006;4.374;2022-12-18T04:42:44;82.47;;;38.15;;
17177;SDS011;8704;52.006;4.374;2022-12-18T04:45:12;88.18;;;37.60;;
17177;SDS011;8704;52.006;4.374;2022-12-18T04:47:40;83.47;;;38.08;;
17177;SDS011;8704;52.006;4.374;2022-12-18T04:50:10;96.45;;;37.42;;
17177;SDS011;8704;52.006;4.374;2022-12-18T04:52:37;89.07;;;37.42;;
17177;SDS011;8704;52.006;4.374;2022-12-18T04:55:06;78.35;;;36.25;;
17177;SDS011;8704;52.006;4.374;2022-12-18T04:57:34;72.55;;;36.35;;
17177;SDS011;8704;52.006;4.374;2022-12-18T05:00:02;75.13;;;36.25;;
17177;SDS011;8704;52.006;4.374;2022-12-18T05:02:31;69.78;;;35.75;;
17177;SDS011;8704;52.006;4.374;2022-12-18T05:04:59;71.60;;;34.47;;
17177;SDS011;8704;52.006;4.374;2022-12-18T05:07:28;79.40;;;36.90;;
17177;SDS011;8704;52.006;4.374;2022-12-18T05:09:56;67.05;;;34.95;;
17177;SDS011;8704;52.006;4.374;2022-12-18T05:12:24;78.95;;;35.97;;
17177;SDS011;8704;52.006;4.374;2022-12-18T05:14:52;77.78;;;34.20;;
17177;SDS011;8704;52.006;4.374;2022-12-18T05:17:20;70.72;;;36.00;;
17177;SDS011;8704;52.006;4.374;2022-12-18T05:19:48;82.78;;;37.25;;
17177;SDS011;8704;52.006;4.374;2022-12-18T05:22:16;75.18;;;37.08;;
17177;SDS011;8704;52.006;4.374;2022-12-18T05:24:45;72.03;;;35.05;;
17177;SDS011;8704;52.006;4.374;2022-12-18T05:27:13;74.28;;;36.17;;
17177;SDS011;8704;52.006;4.374;2022-12-18T05:29:41;71.28;;;35.33;;
17177;SDS011;8704;52.006;4.374;2022-12-18T05:32:09;74.60;;;34.33;;
17177;SDS011;8704;52.006;4.374;2022-12-18T05:34:37;73.00;;;35.67;;
17177;SDS011;8704;52.006;4.374;2022-12-18T05:37:05;69.65;;;34.97;;
17177;SDS011;8704;52.006;4.374;2022-12-18T05:39:33;73.25;;;35.53;;
17177;SDS011;8704;52.006;4.374;2022-12-18T05:42:03;68.20;;;35.03;;
17177;SDS011;8704;52.006;4.374;2022-12-18T05:44:31;70.85;;;35.15;;
17177;SDS011;8704;52.006;4.374;2022-12-18T05:47:00;70.15;;;33.90;;
17177;SDS011;8704;52.006;4.374;2022-12-18T05:49:28;64.40;;;32.08;;
17177;SDS011;8704;52.006;4.374;2022-12-18T05:51:56;63.25;;;32.10;;
17177;SDS011;8704;52.006;4.374;2022-12-18T05:54:24;66.53;;;31.25;;
17177;SDS011;8704;52.006;4.374;2022-12-18T05:56:53;63.47;;;30.88;;
17177;SDS011;8704;52.006;4.374;2022-12-18T05:59:23;61.60;;;30.20;;
17177;SDS011;8704;52.006;4.374;2022-12-18T06:01:51;62.17;;;31.00;;
17177;SDS011;8704;52.006;4.374;2022-12-18T06:04:19;52.00;;;28.58;;
17177;SDS011;8704;52.006;4.374;2022-12-18T06:06:47;61.97;;;30.50;;
17177;SDS011;8704;52.006;4.374;2022-12-18T06:09:15;56.00;;;29.63;;
17177;SDS011;8704;52.006;4.374;2022-12-18T06:11:43;62.65;;;31.73;;
17177;SDS011;8704;52.006;4.374;2022-12-18T06:14:11;63.17;;;31.98;;
17177;SDS011;8704;52.006;4.374;2022-12-18T06:16:40;57.13;;;29.65;;
17177;SDS011;8704;52.006;4.374;2022-12-18T06:19:12;61.42;;;31.00;;
17177;SDS011;8704;52.006;4.374;2022-12-18T06:21:43;64.00;;;29.50;;
17177;SDS011;8704;52.006;4.374;2022-12-18T06:24:11;60.95;;;29.35;;
17177;SDS011;8704;52.006;4.374;2022-12-18T06:26:39;61.33;;;31.17;;
17177;SDS011;8704;52.006;4.374;2022-12-18T06:29:07;63.60;;;30.25;;
17177;SDS011;8704;52.006;4.374;2022-12-18T06:31:35;64.82;;;30.52;;
17177;SDS011;8704;52.006;4.374;2022-12-18T06:34:04;53.85;;;29.75;;
17177;SDS011;8704;52.006;4.374;2022-12-18T06:36:32;59.03;;;30.95;;
17177;SDS011;8704;52.006;4.374;2022-12-18T06:39:01;56.63;;;30.58;;
17177;SDS011;8704;52.006;4.374;2022-12-18T06:41:29;56.75;;;28.75;;
17177;SDS011;8704;52.006;4.374;2022-12-18T06:43:57;55.70;;;29.45;;
17177;SDS011;8704;52.006;4.374;2022-12-18T06:46:25;59.00;;;28.45;;
17177;SDS011;8704;52.006;4.374;2022-12-18T06:48:53;53.28;;;28.88;;
17177;SDS011;8704;52.006;4.374;2022-12-18T06:51:23;54.75;;;29.30;;
17177;SDS011;8704;52.006;4.374;2022-12-18T06:53:51;58.53;;;28.70;;
17177;SDS011;8704;52.006;4.374;2022-12-18T06:56:19;51.80;;;29.05;;
17177;SDS011;8704;52.006;4.374;2022-12-18T06:58:50;52.88;;;28.95;;
17177;SDS011;8704;52.006;4.374;2022-12-18T07:01:18;52.53;;;27.75;;
17177;SDS011;8704;52.006;4.374;2022-12-18T07:03:46;51.17;;;27.55;;
17177;SDS011;8704;52.006;4.374;2022-12-18T07:06:19;50.65;;;26.20;;
17177;SDS011;8704;52.006;4.374;2022-12-18T07:08:50;54.47;;;26.73;;
17177;SDS011;8704;52.006;4.374;2022-12-18T07:11:20;54.35;;;27.95;;
17177;SDS011;8704;52.006;4.374;2022-12-18T07:13:48;58.28;;;29.10;;
17177;SDS011;8704;52.006;4.374;2022-12-18T07:16:17;59.45;;;31.65;;
17177;SDS011;8704;52.006;4.374;2022-12-18T07:18:51;47.22;;;28.98;;
17177;SDS011;8704;52.006;4.374;2022-12-18T07:21:19;50.95;;;27.70;;
17177;SDS011;8704;52.006;4.374;2022-12-18T07:23:49;57.08;;;28.85;;
17177;SDS011;8704;52.006;4.374;2022-12-18T07:26:19;47.28;;;27.73;;
17177;SDS011;8704;52.006;4.374;2022-12-18T07:28:48;47.70;;;26.70;;
17177;SDS011;8704;52.006;4.374;2022-12-18T07:31:17;49.42;;;26.58;;
17177;SDS011;8704;52.006;4.374;2022-12-18T07:33:47;46.83;;;25.83;;
17177;SDS011;8704;52.006;4.374;2022-12-18T07:36:15;46.10;;;24.95;;
17177;SDS011;8704;52.006;4.374;2022-12-18T07:38:46;42.45;;;25.67;;
17177;SDS011;8704;52.006;4.374;2022-12-18T07:41:16;45.92;;;25.05;;
17177;SDS011;8704;52.006;4.374;2022-12-18T07:43:44;40.40;;;24.23;;
17177;SDS011;8704;52.006;4.374;2022-12-18T07:46:13;43.22;;;24.08;;
17177;SDS011;8704;52.006;4.374;2022-12-18T07:48:42;41.92;;;24.95;;
17177;SDS011;8704;52.006;4.374;2022-12-18T07:51:15;40.65;;;24.55;;
17177;SDS011;8704;52.006;4.374;2022-12-18T07:53:44;41.42;;;23.67;;
17177;SDS011;8704;52.006;4.374;2022-12-18T07:56:19;38.88;;;23.65;;
17177;SDS011;8704;52.006;4.374;2022-12-18T07:58:54;44.03;;;25.02;;
17177;SDS011;8704;52.006;4.374;2022-12-18T08:01:22;41.35;;;23.73;;
17177;SDS011;8704;52.006;4.374;2022-12-18T08:03:50;41.63;;;24.05;;
17177;SDS011;8704;52.006;4.374;2022-12-18T08:06:18;43.15;;;23.60;;
17177;SDS011;8704;52.006;4.374;2022-12-18T08:08:50;34.50;;;22.05;;
17177;SDS011;8704;52.006;4.374;2022-12-18T08:11:20;36.97;;;21.77;;
17177;SDS011;8704;52.006;4.374;2022-12-18T08:13:49;36.15;;;21.77;;
17177;SDS011;8704;52.006;4.374;2022-12-18T08:16:17;36.90;;;22.50;;
17177;SDS011;8704;52.006;4.374;2022-12-18T08:18:46;41.17;;;23.85;;
17177;SDS011;8704;52.006;4.374;2022-12-18T08:21:15;37.38;;;21.88;;
17177;SDS011;8704;52.006;4.374;2022-12-18T08:23:46;33.05;;;22.30;;
17177;SDS011;8704;52.006;4.374;2022-12-18T08:26:16;42.33;;;22.55;;
17177;SDS011;8704;52.006;4.374;2022-12-18T08:28:47;37.50;;;22.10;;
17177;SDS011;8704;52.006;4.374;2022-12-18T08:31:16;41.75;;;22.38;;
17177;SDS011;8704;52.006;4.374;2022-12-18T08:33:44;34.65;;;22.27;;
17177;SDS011;8704;52.006;4.374;2022-12-18T08:36:12;37.40;;;21.92;;
17177;SDS011;8704;52.006;4.374;2022-12-18T08:38:40;41.80;;;22.60;;
17177;SDS011;8704;52.006;4.374;2022-12-18T08:41:09;38.80;;;22.10;;
17177;SDS011;8704;52.006;4.374;2022-12-18T08:43:38;38.30;;;22.92;;
17177;SDS011;8704;52.006;4.374;2022-12-18T08:46:26;37.08;;;22.85;;
17177;SDS011;8704;52.006;4.374;2022-12-18T08:48:59;36.83;;;21.65;;
17177;SDS011;8704;52.006;4.374;2022-12-18T08:51:28;37.85;;;23.40;;
17177;SDS011;8704;52.006;4.374;2022-12-18T08:53:56;38.03;;;21.10;;
17177;SDS011;8704;52.006;4.374;2022-12-18T08:56:24;35.80;;;21.98;;
17177;SDS011;8704;52.006;4.374;2022-12-18T08:58:52;40.63;;;23.20;;
17177;SDS011;8704;52.006;4.374;2022-12-18T09:01:20;38.40;;;23.63;;
17177;SDS011;8704;52.006;4.374;2022-12-18T09:03:50;38.05;;;23.90;;
17177;SDS011;8704;52.006;4.374;2022-12-18T09:06:19;32.63;;;22.20;;
17177;SDS011;8704;52.006;4.374;2022-12-18T09:08:48;36.45;;;23.10;;
17177;SDS011;8704;52.006;4.374;2022-12-18T09:11:19;41.38;;;23.23;;
17177;SDS011;8704;52.006;4.374;2022-12-18T09:13:48;37.30;;;22.98;;
17177;SDS011;8704;52.006;4.374;2022-12-18T09:16:17;44.92;;;24.73;;
17177;SDS011;8704;52.006;4.374;2022-12-18T09:18:45;36.88;;;23.52;;
17177;SDS011;8704;52.006;4.374;2022-12-18T09:21:16;33.00;;;23.73;;
17177;SDS011;8704;52.006;4.374;2022-12-18T09:23:48;39.05;;;23.02;;
17177;SDS011;8704;52.006;4.374;2022-12-18T09:26:16;36.80;;;22.75;;
17177;SDS011;8704;52.006;4.374;2022-12-18T09:28:44;39.10;;;23.25;;
17177;SDS011;8704;52.006;4.374;2022-12-18T09:31:16;35.67;;;22.65;;
17177;SDS011;8704;52.006;4.374;2022-12-18T09:36:13;37.95;;;23.02;;
17177;SDS011;8704;52.006;4.374;2022-12-18T09:38:43;33.45;;;22.67;;
17177;SDS011;8704;52.006;4.374;2022-12-18T09:41:21;37.45;;;23.02;;
17177;SDS011;8704;52.006;4.374;2022-12-18T09:44:05;33.17;;;22.70;;
17177;SDS011;8704;52.006;4.374;2022-12-18T09:46:43;36.63;;;22.50;;
17177;SDS011;8704;52.006;4.374;2022-12-18T09:49:14;37.75;;;23.48;;
17177;SDS011;8704;52.006;4.374;2022-12-18T09:51:49;34.92;;;23.55;;
17177;SDS011;8704;52.006;4.374;2022-12-18T09:54:22;39.45;;;24.10;;
17177;SDS011;8704;52.006;4.374;2022-12-18T09:56:54;35.90;;;23.70;;
17177;SDS011;8704;52.006;4.374;2022-12-18T09:59:23;35.00;;;23.27;;
17177;SDS011;8704;52.006;4.374;2022-12-18T10:01:53;35.15;;;24.42;;
17177;SDS011;8704;52.006;4.374;2022-12-18T10:04:21;35.97;;;22.45;;
17177;SDS011;8704;52.006;4.374;2022-12-18T10:06:54;37.28;;;22.40;;
17177;SDS011;8704;52.006;4.374;2022-12-18T10:09:37;31.65;;;21.13;;
17177;SDS011;8704;52.006;4.374;2022-12-18T10:12:09;32.63;;;21.98;;
17177;SDS011;8704;52.006;4.374;2022-12-18T10:14:47;35.25;;;21.17;;
17177;SDS011;8704;52.006;4.374;2022-12-18T10:17:23;35.70;;;22.17;;
17177;SDS011;8704;52.006;4.374;2022-12-18T10:19:56;36.35;;;22.33;;
17177;SDS011;8704;52.006;4.374;2022-12-18T10:22:38;35.90;;;22.40;;
17177;SDS011;8704;52.006;4.374;2022-12-18T10:25:15;36.05;;;21.83;;
17177;SDS011;8704;52.006;4.374;2022-12-18T10:27:48;32.15;;;21.20;;
17177;SDS011;8704;52.006;4.374;2022-12-18T10:30:21;35.55;;;21.58;;
17177;SDS011;8704;52.006;4.374;2022-12-18T10:32:50;34.65;;;22.08;;
17177;SDS011;8704;52.006;4.374;2022-12-18T10:35:19;34.67;;;21.63;;
17177;SDS011;8704;52.006;4.374;2022-12-18T10:38:04;33.78;;;20.85;;
17177;SDS011;8704;52.006;4.374;2022-12-18T10:40:48;32.92;;;22.17;;
17177;SDS011;8704;52.006;4.374;2022-12-18T10:43:19;31.73;;;20.65;;
17177;SDS011;8704;52.006;4.374;2022-12-18T10:48:27;30.67;;;19.80;;
17177;SDS011;8704;52.006;4.374;2022-12-18T10:50:57;35.20;;;19.60;;
17177;SDS011;8704;52.006;4.374;2022-12-18T10:53:42;36.33;;;20.65;;
17177;SDS011;8704;52.006;4.374;2022-12-18T10:56:19;27.38;;;19.85;;
17177;SDS011;8704;52.006;4.374;2022-12-18T10:58:54;29.83;;;20.10;;
17177;SDS011;8704;52.006;4.374;2022-12-18T11:01:24;32.58;;;19.92;;
17177;SDS011;8704;52.006;4.374;2022-12-18T11:04:00;28.13;;;19.02;;
17177;SDS011;8704;52.006;4.374;2022-12-18T11:06:35;32.55;;;21.20;;
17177;SDS011;8704;52.006;4.374;2022-12-18T11:09:22;32.53;;;20.42;;
17177;SDS011;8704;52.006;4.374;2022-12-18T11:11:52;28.35;;;20.05;;
17177;SDS011;8704;52.006;4.374;2022-12-18T11:14:22;27.05;;;18.02;;
17177;SDS011;8704;52.006;4.374;2022-12-18T11:16:51;28.15;;;18.15;;
17177;SDS011;8704;52.006;4.374;2022-12-18T11:19:41;31.48;;;18.52;;
17177;SDS011;8704;52.006;4.374;2022-12-18T11:22:17;29.83;;;19.33;;
17177;SDS011;8704;52.006;4.374;2022-12-18T11:24:55;26.80;;;17.60;;
17177;SDS011;8704;52.006;4.374;2022-12-18T11:27:49;30.50;;;18.75;;
17177;SDS011;8704;52.006;4.374;2022-12-18T11:30:24;27.52;;;18.00;;
17177;SDS011;8704;52.006;4.374;2022-12-18T11:32:56;28.75;;;17.83;;
17177;SDS011;8704;52.006;4.374;2022-12-18T11:35:37;29.85;;;19.00;;
17177;SDS011;8704;52.006;4.374;2022-12-18T11:38:14;28.00;;;17.95;;
17177;SDS011;8704;52.006;4.374;2022-12-18T11:40:51;26.40;;;17.25;;
17177;SDS011;8704;52.006;4.374;2022-12-18T11:43:25;27.00;;;17.67;;
17177;SDS011;8704;52.006;4.374;2022-12-18T11:45:59;27.33;;;17.77;;
17177;SDS011;8704;52.006;4.374;2022-12-18T11:48:30;28.35;;;18.42;;
17177;SDS011;8704;52.006;4.374;2022-12-18T11:51:04;25.38;;;17.02;;
17177;SDS011;8704;52.006;4.374;2022-12-18T11:53:36;26.45;;;16.95;;
17177;SDS011;8704;52.006;4.374;2022-12-18T11:56:25;24.67;;;16.85;;
17177;SDS011;8704;52.006;4.374;2022-12-18T11:59:00;26.75;;;17.98;;
17177;SDS011;8704;52.006;4.374;2022-12-18T12:01:38;27.88;;;16.70;;
17177;SDS011;8704;52.006;4.374;2022-12-18T12:07:18;25.83;;;16.15;;
17177;SDS011;8704;52.006;4.374;2022-12-18T12:09:56;24.90;;;16.65;;
17177;SDS011;8704;52.006;4.374;2022-12-18T12:12:34;26.48;;;16.88;;
17177;SDS011;8704;52.006;4.374;2022-12-18T12:15:21;25.02;;;16.83;;
17177;SDS011;8704;52.006;4.374;2022-12-18T12:18:05;25.13;;;16.52;;
17177;SDS011;8704;52.006;4.374;2022-12-18T12:20:42;27.55;;;16.98;;
17177;SDS011;8704;52.006;4.374;2022-12-18T12:23:19;24.65;;;16.75;;
17177;SDS011;8704;52.006;4.374;2022-12-18T12:25:58;26.60;;;16.77;;
17177;SDS011;8704;52.006;4.374;2022-12-18T12:28:36;25.73;;;16.08;;
17177;SDS011;8704;52.006;4.374;2022-12-18T12:31:19;24.02;;;15.70;;
17177;SDS011;8704;52.006;4.374;2022-12-18T12:33:57;26.23;;;16.85;;
17177;SDS011;8704;52.006;4.374;2022-12-18T12:36:36;29.38;;;17.10;;
17177;SDS011;8704;52.006;4.374;2022-12-18T12:39:13;25.33;;;15.85;;
17177;SDS011;8704;52.006;4.374;2022-12-18T12:44:33;24.42;;;16.25;;
17177;SDS011;8704;52.006;4.374;2022-12-18T12:47:10;26.48;;;16.98;;
17177;SDS011;8704;52.006;4.374;2022-12-18T12:49:46;24.67;;;14.73;;
17177;SDS011;8704;52.006;4.374;2022-12-18T12:52:17;26.13;;;16.80;;
17177;SDS011;8704;52.006;4.374;2022-12-18T12:54:55;22.00;;;15.23;;
17177;SDS011;8704;52.006;4.374;2022-12-18T12:57:30;23.83;;;15.52;;
17177;SDS011;8704;52.006;4.374;2022-12-18T13:00:04;21.52;;;15.35;;
17177;SDS011;8704;52.006;4.374;2022-12-18T13:02:38;23.83;;;15.25;;
17177;SDS011;8704;52.006;4.374;2022-12-18T13:05:16;25.27;;;14.60;;
17177;SDS011;8704;52.006;4.374;2022-12-18T13:07:50;23.83;;;15.77;;
17177;SDS011;8704;52.006;4.374;2022-12-18T13:10:25;32.95;;;16.50;;
17177;SDS011;8704;52.006;4.374;2022-12-18T13:12:59;23.33;;;14.75;;
17177;SDS011;8704;52.006;4.374;2022-12-18T13:15:31;24.65;;;16.63;;
17177;SDS011;8704;52.006;4.374;2022-12-18T13:18:15;25.27;;;16.40;;
17177;SDS011;8704;52.006;4.374;2022-12-18T13:20:47;24.88;;;15.07;;
17177;SDS011;8704;52.006;4.374;2022-12-18T13:23:29;28.42;;;15.93;;
17177;SDS011;8704;52.006;4.374;2022-12-18T13:28:58;22.10;;;14.45;;
17177;SDS011;8704;52.006;4.374;2022-12-18T13:34:41;31.27;;;20.90;;
17177;SDS011;8704;52.006;4.374;2022-12-18T13:43:28;26.00;;;15.80;;
17177;SDS011;8704;52.006;4.374;2022-12-18T13:46:18;22.70;;;15.13;;
17177;SDS011;8704;52.006;4.374;2022-12-18T13:48:50;26.05;;;15.00;;
17177;SDS011;8704;52.006;4.374;2022-12-18T13:51:23;24.65;;;15.18;;
17177;SDS011;8704;52.006;4.374;2022-12-18T13:53:53;22.10;;;13.93;;
17177;SDS011;8704;52.006;4.374;2022-12-18T13:56:22;21.45;;;14.50;;
17177;SDS011;8704;52.006;4.374;2022-12-18T13:59:17;25.27;;;13.13;;
17177;SDS011;8704;52.006;4.374;2022-12-18T14:01:51;20.15;;;13.10;;
17177;SDS011;8704;52.006;4.374;2022-12-18T14:04:23;18.23;;;11.90;;
17177;SDS011;8704;52.006;4.374;2022-12-18T14:06:55;21.63;;;13.30;;
17177;SDS011;8704;52.006;4.374;2022-12-18T14:09:27;20.40;;;12.23;;
17177;SDS011;8704;52.006;4.374;2022-12-18T14:12:02;20.20;;;13.32;;
17177;SDS011;8704;52.006;4.374;2022-12-18T14:14:50;22.52;;;13.32;;
17177;SDS011;8704;52.006;4.374;2022-12-18T14:17:20;23.55;;;12.88;;
17177;SDS011;8704;52.006;4.374;2022-12-18T14:19:50;20.63;;;13.45;;
17177;SDS011;8704;52.006;4.374;2022-12-18T14:22:20;22.85;;;13.18;;
17177;SDS011;8704;52.006;4.374;2022-12-18T14:25:04;22.23;;;12.15;;
17177;SDS011;8704;52.006;4.374;2022-12-18T14:27:41;20.85;;;13.20;;
17177;SDS011;8704;52.006;4.374;2022-12-18T14:30:22;20.33;;;13.77;;
17177;SDS011;8704;52.006;4.374;2022-12-18T14:33:00;24.02;;;13.55;;
17177;SDS011;8704;52.006;4.374;2022-12-18T14:35:29;21.70;;;14.10;;
17177;SDS011;8704;52.006;4.374;2022-12-18T14:38:10;23.02;;;14.40;;
17177;SDS011;8704;52.006;4.374;2022-12-18T14:40:46;23.27;;;14.63;;
17177;SDS011;8704;52.006;4.374;2022-12-18T14:43:14;21.63;;;14.32;;
17177;SDS011;8704;52.006;4.374;2022-12-18T14:45:43;24.23;;;14.80;;
17177;SDS011;8704;52.006;4.374;2022-12-18T14:48:14;21.30;;;14.10;;
17177;SDS011;8704;52.006;4.374;2022-12-18T14:50:56;18.85;;;12.52;;
17177;SDS011;8704;52.006;4.374;2022-12-18T14:56:20;19.60;;;14.18;;
17177;SDS011;8704;52.006;4.374;2022-12-18T14:58:49;22.27;;;14.52;;
17177;SDS011;8704;52.006;4.374;2022-12-18T15:01:21;23.23;;;15.30;;
17177;SDS011;8704;52.006;4.374;2022-12-18T15:03:51;24.92;;;15.95;;
17177;SDS011;8704;52.006;4.374;2022-12-18T15:06:30;26.25;;;16.30;;
17177;SDS011;8704;52.006;4.374;2022-12-18T15:09:02;23.40;;;15.60;;
17177;SDS011;8704;52.006;4.374;2022-12-18T15:11:44;26.02;;;16.58;;
17177;SDS011;8704;52.006;4.374;2022-12-18T15:14:24;22.00;;;14.90;;
17177;SDS011;8704;52.006;4.374;2022-12-18T15:17:01;23.55;;;14.70;;
17177;SDS011;8704;52.006;4.374;2022-12-18T15:19:33;20.97;;;14.27;;
17177;SDS011;8704;52.006;4.374;2022-12-18T15:22:04;20.98;;;14.27;;
17177;SDS011;8704;52.006;4.374;2022-12-18T15:24:54;20.48;;;12.77;;
17177;SDS011;8704;52.006;4.374;2022-12-18T15:27:25;20.88;;;13.55;;
17177;SDS011;8704;52.006;4.374;2022-12-18T15:32:48;23.30;;;14.40;;
17177;SDS011;8704;52.006;4.374;2022-12-18T15:35:19;23.35;;;14.65;;